Site contains unofficial IBTrACS data. Visit the IBTrACS Website to access archived data.

1916 NOT_NAMED (1916148N08124)


IBTrACS version v04r00. Visit IBTrACS website for data access.
Please direct all questions to the IBTrACS Q and A forum

Storm track - Intensity - Wind Radii - Intensity Data - Source Data - All data

Summary Information

Storm ID 1916148N08124
Start May 26 22Z
Landfall May 27 00Z, May 28 03Z, May 31 18Z, Jun 1 18Z
End Jun 1 22Z
ATCF IDs
Track status Best track data.

Storm track plot

Map of storm track

Intensity plots

No Intensity information for this storm


Radial wind information

No radial wind information for this storm


Position and Intensity Table

BASIN ISO_TIME_________ NATURE LAT LON
degrees north degrees east
WP 1916-05-26 22:00:00 NR 8.40 123.90
WP 1916-05-27 00:00:00 NR 8.43 123.53
WP 03:00:00 NR 8.49 122.97
WP 06:00:00 NR 8.56 122.39
WP 09:00:00 NR 8.66 121.80
WP 10:00:00 NR 8.70 121.60
WP 12:00:00 NR 8.79 121.19
WP 15:00:00 NR 8.95 120.56
WP 18:00:00 NR 9.11 119.95
WP 21:00:00 NR 9.26 119.38
WP 22:00:00 NR 9.30 119.20
WP 1916-05-28 00:00:00 NR 9.35 118.88
WP 03:00:00 NR 9.41 118.44
WP 06:00:00 NR 9.47 118.04
WP 09:00:00 NR 9.56 117.64
WP 10:00:00 NR 9.60 117.50
WP 12:00:00 NR 9.72 117.19
WP 15:00:00 NR 9.93 116.73
WP 18:00:00 NR 10.17 116.27
WP 21:00:00 NR 10.42 115.83
WP 22:00:00 NR 10.50 115.70
WP 1916-05-29 00:00:00 NR 10.65 115.46
WP 03:00:00 NR 10.87 115.14
WP 06:00:00 NR 11.09 114.83
WP 09:00:00 NR 11.32 114.51
WP 10:00:00 NR 11.40 114.40
WP 12:00:00 NR 11.56 114.14
WP 15:00:00 NR 11.80 113.72
WP 18:00:00 NR 12.05 113.31
WP 21:00:00 NR 12.31 112.92
WP 22:00:00 NR 12.40 112.80
WP 1916-05-30 00:00:00 NR 12.56 112.58
WP 03:00:00 NR 12.80 112.28
WP 06:00:00 NR 13.07 112.02
WP 09:00:00 NR 13.38 111.78
WP 10:00:00 NR 13.50 111.70
WP 12:00:00 NR 13.76 111.54
WP 15:00:00 NR 14.20 111.33
WP 18:00:00 NR 14.67 111.13
WP 21:00:00 NR 15.14 110.96
WP 22:00:00 NR 15.30 110.90
WP 1916-05-31 00:00:00 NR 15.59 110.80
WP 03:00:00 NR 16.02 110.66
WP 06:00:00 NR 16.44 110.52
WP 09:00:00 NR 16.86 110.36
WP 10:00:00 NR 17.00 110.30
WP 12:00:00 NR 17.29 110.16
WP 15:00:00 NR 17.73 109.92
WP 18:00:00 NR 18.16 109.66
WP 21:00:00 NR 18.57 109.39
WP 22:00:00 NR 18.70 109.30
WP 1916-06-01 00:00:00 NR 18.95 109.16
WP 03:00:00 NR 19.30 108.95
WP 06:00:00 NR 19.64 108.71
WP 09:00:00 NR 19.98 108.42
WP 10:00:00 NR 20.10 108.30
WP 12:00:00 NR 20.34 108.04
WP 15:00:00 NR 20.71 107.57
WP 18:00:00 NR 21.09 107.05
WP 21:00:00 NR 21.47 106.49
WP 22:00:00 NR 21.60 106.30

Source Information

Agency Information
USA
TOKYO
CMA
HKO
NEWDELHI
REUNION
BOM
NADI
WELLINGTON
DS824
TD9636 cons_worldwide_trop_cyclone_18710101-19891231-003:Line=5292
TD9635
NEUMANN
MLC

All available IBTrACS Data

SEASON BASIN SUBBASIN ISO_TIME_________ NATURE LAT LON DIST2LAND LANDFALL IFLAG USA SSHS TD9636 LAT TD9636 LON TD9636 STAGE STORM SPEED STORM DIR
Year degrees north degrees east km km 1 degrees north degrees east kts degrees
1916 WP MM 1916-05-26 22:00:00 NR 8.40 123.90 11 0 __________O___ -1 8.40 123.90 2 11 275
1916 WP MM 1916-05-27 00:00:00 NR 8.43 123.53 0 0 __________P___ -1 8.43 123.53 2 11 276
1916 WP MM 03:00:00 NR 8.49 122.97 11 15 __________P___ -1 8.49 122.97 2 11 277
1916 WP MM 06:00:00 NR 8.56 122.39 57 57 __________P___ -1 8.56 122.39 2 12 278
1916 WP MM 09:00:00 NR 8.66 121.80 89 89 __________P___ -1 8.66 121.80 2 12 280
1916 WP MM 10:00:00 NR 8.70 121.60 102 102 __________O___ -1 8.70 121.60 2 12 282
1916 WP MM 12:00:00 NR 8.79 121.19 141 141 __________P___ -1 8.79 121.19 2 13 283
1916 WP MM 15:00:00 NR 8.95 120.56 200 142 __________P___ -1 8.95 120.56 2 13 285
1916 WP MM 18:00:00 NR 9.11 119.95 142 79 __________P___ -1 9.11 119.95 2 12 285
1916 WP MM 21:00:00 NR 9.26 119.38 79 62 __________P___ -1 9.26 119.38 2 12 285
1916 WP MM 22:00:00 NR 9.30 119.20 62 31 __________O___ -1 9.30 119.20 2 10 281
1916 WP MM 1916-05-28 00:00:00 NR 9.35 118.88 31 0 __________P___ -1 9.35 118.88 2 9 278
1916 WP MM 03:00:00 NR 9.41 118.44 0 0 __________P___ -1 9.41 118.44 2 8 278
1916 WP MM 06:00:00 NR 9.47 118.04 24 24 __________P___ -1 9.47 118.04 2 8 281
1916 WP MM 09:00:00 NR 9.56 117.64 49 49 __________P___ -1 9.56 117.64 2 8 284
1916 WP MM 10:00:00 NR 9.60 117.50 55 55 __________O___ -1 9.60 117.50 2 9 290
1916 WP MM 12:00:00 NR 9.72 117.19 86 86 __________P___ -1 9.72 117.19 2 10 293
1916 WP MM 15:00:00 NR 9.93 116.73 141 141 __________P___ -1 9.93 116.73 2 10 296
1916 WP MM 18:00:00 NR 10.17 116.27 196 203 __________P___ -1 10.17 116.27 2 10 299
1916 WP MM 21:00:00 NR 10.42 115.83 251 251 __________P___ -1 10.42 115.83 2 10 301
1916 WP MM 22:00:00 NR 10.50 115.70 266 266 __________O___ -1 10.50 115.70 2 9 302
1916 WP MM 1916-05-29 00:00:00 NR 10.65 115.46 290 306 __________P___ -1 10.65 115.46 2 8 304
1916 WP MM 03:00:00 NR 10.87 115.14 345 345 __________P___ -1 10.87 115.14 2 8 306
1916 WP MM 06:00:00 NR 11.09 114.83 385 385 __________P___ -1 11.09 114.83 2 8 306
1916 WP MM 09:00:00 NR 11.32 114.51 424 424 __________P___ -1 11.32 114.51 2 8 306
1916 WP MM 10:00:00 NR 11.40 114.40 440 440 __________O___ -1 11.40 114.40 2 9 303
1916 WP MM 12:00:00 NR 11.56 114.14 479 465 __________P___ -1 11.56 114.14 2 9 301
1916 WP MM 15:00:00 NR 11.80 113.72 465 416 __________P___ -1 11.80 113.72 2 10 301
1916 WP MM 18:00:00 NR 12.05 113.31 416 370 __________P___ -1 12.05 113.31 2 9 303
1916 WP MM 21:00:00 NR 12.31 112.92 370 359 __________P___ -1 12.31 112.92 2 9 305
1916 WP MM 22:00:00 NR 12.40 112.80 359 336 __________O___ -1 12.40 112.80 2 8 307
1916 WP MM 1916-05-30 00:00:00 NR 12.56 112.58 336 303 __________P___ -1 12.56 112.58 2 8 309
1916 WP MM 03:00:00 NR 12.80 112.28 303 271 __________P___ -1 12.80 112.28 2 8 313
1916 WP MM 06:00:00 NR 13.07 112.02 271 253 __________P___ -1 13.07 112.02 2 8 320
1916 WP MM 09:00:00 NR 13.38 111.78 255 244 __________P___ -1 13.38 111.78 2 8 324
1916 WP MM 10:00:00 NR 13.50 111.70 247 237 __________O___ -1 13.50 111.70 2 9 329
1916 WP MM 12:00:00 NR 13.76 111.54 237 218 __________P___ -1 13.76 111.54 2 10 333
1916 WP MM 15:00:00 NR 14.20 111.33 218 209 __________P___ -1 14.20 111.33 2 10 336
1916 WP MM 18:00:00 NR 14.67 111.13 213 205 __________P___ -1 14.67 111.13 2 10 339
1916 WP MM 21:00:00 NR 15.14 110.96 209 201 __________P___ -1 15.14 110.96 2 10 340
1916 WP MM 22:00:00 NR 15.30 110.90 204 198 __________O___ -1 15.30 110.90 2 9 341
1916 WP MM 1916-05-31 00:00:00 NR 15.59 110.80 208 204 __________P___ -1 15.59 110.80 2 9 342
1916 WP MM 03:00:00 NR 16.02 110.66 212 208 __________P___ -1 16.02 110.66 2 9 342
1916 WP MM 06:00:00 NR 16.44 110.52 217 163 __________P___ -1 16.44 110.52 2 9 341
1916 WP MM 09:00:00 NR 16.86 110.36 163 148 __________P___ -1 16.86 110.36 2 9 340
1916 WP MM 10:00:00 NR 17.00 110.30 148 113 __________O___ -1 17.00 110.30 2 10 336
1916 WP MM 12:00:00 NR 17.29 110.16 113 59 __________P___ -1 17.29 110.16 2 10 333
1916 WP MM 15:00:00 NR 17.73 109.92 59 0 __________P___ -1 17.73 109.92 2 10 331
1916 WP MM 18:00:00 NR 18.16 109.66 0 0 __________P___ -1 18.16 109.66 2 10 329
1916 WP MM 21:00:00 NR 18.57 109.39 0 0 __________P___ -1 18.57 109.39 2 10 328
1916 WP MM 22:00:00 NR 18.70 109.30 0 0 __________O___ -1 18.70 109.30 2 9 330
1916 WP MM 1916-06-01 00:00:00 NR 18.95 109.16 0 0 __________P___ -1 18.95 109.16 2 8 331
1916 WP MM 03:00:00 NR 19.30 108.95 0 0 __________P___ -1 19.30 108.95 2 8 329
1916 WP MM 06:00:00 NR 19.64 108.71 22 30 __________P___ -1 19.64 108.71 2 9 324
1916 WP MM 09:00:00 NR 19.98 108.42 74 74 __________P___ -1 19.98 108.42 2 9 320
1916 WP MM 10:00:00 NR 20.10 108.30 88 88 __________O___ -1 20.10 108.30 2 10 315
1916 WP MM 12:00:00 NR 20.34 108.04 100 39 __________P___ -1 20.34 108.04 2 11 312
1916 WP MM 15:00:00 NR 20.71 107.57 39 0 __________P___ -1 20.71 107.57 2 12 309
1916 WP MM 18:00:00 NR 21.09 107.05 0 0 __________P___ -1 21.09 107.05 2 13 307
1916 WP MM 21:00:00 NR 21.47 106.49 0 0 __________P___ -1 21.47 106.49 2 13 306
1916 WP MM 22:00:00 NR 21.60 106.30 0 __________O___ -1 21.60 106.30 2 13 306